Time;durP1;ratioP1;P1;durP2;ratioP2;P2;SDS_P1;SDS_P2;PMS_P1;PMS_P2;Temp;Humidity;BMP_temperature;BMP_pressure;BME280_temperature;BME280_humidity;BME280_pressure;Samples;Min_cycle;Max_cycle;Signal;HPM_P1;HPM_P2
2022/08/13 00:00:43;;;;;;;14.10;11.80;;;;;;;19.84;89.54;100796.52;107235;1248;63086;-65
2022/08/13 00:03:14;;;;;;;14.20;12.30;;;;;;;19.84;89.20;100794.22;107278;1247;59569;-71
2022/08/13 00:06:08;;;;;;;16.00;11.90;;;;;;;19.84;89.24;100792.64;107373;1248;63727;-64
2022/08/13 00:08:56;;;;;;;13.80;11.60;;;;;;;19.86;89.27;100796.56;107402;1248;61713;-64
2022/08/13 00:14:34;;;;;;;14.70;12.10;;;;;;;19.88;89.68;100794.60;107399;1248;74320;-65
2022/08/13 00:17:14;;;;;;;16.00;12.60;;;;;;;19.89;89.38;100788.95;107542;1247;59617;-66
2022/08/13 00:19:50;;;;;;;15.30;12.30;;;;;;;19.89;89.81;100786.11;107465;1247;59652;-66
2022/08/13 00:22:25;;;;;;;16.40;11.50;;;;;;;19.92;89.73;100786.71;107341;1247;74900;-64
2022/08/13 00:25:01;;;;;;;13.80;12.10;;;;;;;19.89;90.26;100789.25;107342;1247;62192;-66
2022/08/13 00:27:37;;;;;;;15.30;12.30;;;;;;;19.91;89.92;100783.92;107167;1250;59144;-65
2022/08/13 00:30:33;;;;;;;13.50;11.80;;;;;;;19.88;90.69;100774.25;107305;1247;64117;-65
2022/08/13 00:33:12;;;;;;;16.00;13.00;;;;;;;19.83;91.21;100770.65;107169;1247;62077;-65
2022/08/13 00:35:47;;;;;;;15.70;12.30;;;;;;;19.78;91.77;100767.14;107409;1246;60681;-65
2022/08/13 00:38:29;;;;;;;15.40;12.30;;;;;;;19.83;90.95;100767.83;107324;1248;64172;-64
2022/08/13 00:41:05;;;;;;;14.80;12.60;;;;;;;19.83;90.47;100769.42;107274;1250;61460;-64
2022/08/13 00:43:44;;;;;;;16.60;12.80;;;;;;;19.82;90.60;100771.51;107455;1248;60865;-65
2022/08/13 00:46:13;;;;;;;16.40;12.60;;;;;;;19.78;91.30;100768.08;107686;1247;62381;-64
2022/08/13 00:48:47;;;;;;;15.90;12.40;;;;;;;19.78;90.63;100766.25;107372;1248;62198;-63
2022/08/13 00:51:25;;;;;;;14.90;13.00;;;;;;;19.76;91.15;100762.23;107345;1250;59559;-62
2022/08/13 00:54:17;;;;;;;14.30;12.00;;;;;;;19.77;90.92;100764.23;107192;1247;63703;-64
2022/08/13 00:56:46;;;;;;;15.70;13.10;;;;;;;19.78;90.69;100760.98;107424;1249;61548;-65
2022/08/13 00:59:15;;;;;;;16.80;13.10;;;;;;;19.80;90.67;100761.09;107253;1250;70204;-65
2022/08/13 01:01:47;;;;;;;14.40;11.70;;;;;;;19.84;90.58;100759.41;107440;1248;74233;-63
2022/08/13 01:04:21;;;;;;;13.30;11.80;;;;;;;19.83;90.35;100758.81;107486;1247;59556;-65
2022/08/13 01:06:57;;;;;;;16.70;12.50;;;;;;;19.83;91.15;100755.80;107411;1248;61256;-65
2022/08/13 01:09:29;;;;;;;15.40;13.10;;;;;;;19.83;90.94;100748.61;107563;1247;75137;-63
2022/08/13 01:12:23;;;;;;;16.50;13.10;;;;;;;19.85;91.30;100751.00;107433;1248;72234;-63
2022/08/13 01:14:59;;;;;;;16.10;13.40;;;;;;;19.86;90.86;100751.66;107541;1247;69145;-63
2022/08/13 01:17:30;;;;;;;14.80;12.20;;;;;;;19.87;90.75;100751.73;107473;1247;62397;-64
2022/08/13 01:20:21;;;;;;;17.80;14.40;;;;;;;19.87;91.39;100745.77;107423;1247;63358;-65
2022/08/13 01:23:04;;;;;;;15.20;13.40;;;;;;;19.88;91.26;100746.45;107485;1248;58851;-70
2022/08/13 01:25:37;;;;;;;16.50;13.40;;;;;;;19.89;91.53;100746.05;107506;1247;62923;-63
2022/08/13 01:28:27;;;;;;;18.00;13.80;;;;;;;19.91;91.41;100746.52;107369;1249;61453;-65
2022/08/13 01:31:04;;;;;;;17.40;14.00;;;;;;;19.92;91.02;100742.16;107475;1247;69968;-63
2022/08/13 01:33:49;;;;;;;16.70;13.70;;;;;;;19.94;91.20;100739.66;107422;1247;63922;-65
2022/08/13 01:36:21;;;;;;;16.70;13.90;;;;;;;19.93;91.14;100740.07;107445;1247;62217;-64
2022/08/13 01:39:10;;;;;;;15.10;11.70;;;;;;;19.96;91.07;100736.45;107420;1247;57857;-65
2022/08/13 01:41:49;;;;;;;17.50;13.00;;;;;;;19.95;91.22;100736.80;107422;1248;62807;-64
2022/08/13 01:44:25;;;;;;;15.70;11.40;;;;;;;19.95;91.19;100738.04;107223;1247;72509;-62
2022/08/13 01:52:42;;;;;;;15.60;13.10;;;;;;;19.96;91.28;100729.89;107637;1247;59592;-62
2022/08/13 01:55:12;;;;;;;15.30;12.20;;;;;;;19.97;91.00;100726.73;107508;1247;59632;-67
2022/08/13 01:57:44;;;;;;;16.30;13.40;;;;;;;19.98;90.71;100727.14;107540;1246;63677;-65
2022/08/13 02:00:23;;;;;;;15.10;12.80;;;;;;;19.95;90.81;100729.96;107476;1247;61923;-67
2022/08/13 02:03:01;;;;;;;15.30;13.10;;;;;;;19.95;90.46;100737.54;107589;1247;59901;-66
2022/08/13 02:05:30;;;;;;;14.80;12.50;;;;;;;19.92;90.90;100740.54;107663;1250;74414;-70
2022/08/13 02:08:23;;;;;;;15.70;12.30;;;;;;;19.94;90.60;100734.87;107637;1248;62285;-67
2022/08/13 02:10:54;;;;;;;15.10;13.30;;;;;;;19.92;90.67;100734.50;107821;1247;60234;-64
2022/08/13 02:13:28;;;;;;;15.20;12.60;;;;;;;19.92;90.95;100733.68;107723;1249;74110;-64
2022/08/13 02:16:06;;;;;;;15.30;12.80;;;;;;;19.93;90.64;100728.60;107746;1246;72987;-68
2022/08/13 02:18:38;;;;;;;15.90;13.00;;;;;;;19.91;90.89;100728.61;107761;1247;60204;-64
2022/08/13 02:21:07;;;;;;;14.40;12.30;;;;;;;19.90;91.15;100725.95;107504;1247;62389;-65
2022/08/13 02:23:57;;;;;;;14.40;12.70;;;;;;;19.85;91.15;100727.30;107252;1247;62102;-65
2022/08/13 02:26:32;;;;;;;14.30;12.40;;;;;;;19.84;91.18;100718.59;107313;1247;59846;-66
2022/08/13 02:29:04;;;;;;;15.50;12.70;;;;;;;19.80;91.35;100715.02;107173;1250;75207;-65
2022/08/13 02:31:34;;;;;;;15.20;12.80;;;;;;;19.80;91.22;100713.73;107360;1247;61803;-65
2022/08/13 02:34:24;;;;;;;16.10;12.80;;;;;;;19.79;91.20;100705.05;107233;1247;59228;-65
2022/08/13 02:36:57;;;;;;;16.70;13.20;;;;;;;19.78;91.08;100694.36;107289;1248;73847;-64
2022/08/13 02:39:48;;;;;;;15.60;13.30;;;;;;;19.79;91.02;100690.61;107264;1250;59600;-62
2022/08/13 02:42:22;;;;;;;16.90;13.40;;;;;;;19.72;91.08;100685.90;107374;1247;57868;-66
2022/08/13 02:44:51;;;;;;;15.50;12.80;;;;;;;19.67;91.27;100688.56;107290;1249;63070;-64
2022/08/13 02:47:23;;;;;;;15.40;12.80;;;;;;;19.61;91.14;100685.87;107304;1249;60767;-62
2022/08/13 02:50:02;;;;;;;15.40;11.90;;;;;;;19.55;91.20;100681.14;107465;1247;60006;-67
2022/08/13 02:52:32;;;;;;;17.80;13.40;;;;;;;19.52;91.58;100683.51;107273;1249;62329;-66
2022/08/13 02:55:02;;;;;;;14.70;12.40;;;;;;;19.45;91.80;100687.03;107455;1247;62012;-67
2022/08/13 02:57:31;;;;;;;16.60;13.20;;;;;;;19.41;92.16;100681.52;107198;1247;61088;-67
2022/08/13 03:00:03;;;;;;;19.20;13.10;;;;;;;19.34;92.49;100684.27;107275;1248;75207;-64
2022/08/13 03:02:44;;;;;;;17.50;12.80;;;;;;;19.31;91.94;100683.16;107397;1247;73313;-66
2022/08/13 03:05:17;;;;;;;15.20;12.60;;;;;;;19.25;92.43;100687.83;107460;1247;70495;-65
2022/08/13 03:07:48;;;;;;;17.20;13.50;;;;;;;19.21;92.35;100689.16;107380;1248;71869;-64
2022/08/13 03:10:25;;;;;;;16.30;13.50;;;;;;;19.16;92.85;100687.65;107329;1247;59722;-64
2022/08/13 03:13:21;;;;;;;18.00;13.10;;;;;;;19.11;93.28;100691.21;107338;1247;61174;-68
2022/08/13 03:15:56;;;;;;;15.80;12.90;;;;;;;19.08;92.63;100686.70;107362;1247;74452;-68
2022/08/13 03:18:32;;;;;;;18.90;13.80;;;;;;;19.05;93.03;100684.05;107340;1247;72472;-65
2022/08/13 03:21:26;;;;;;;16.40;13.30;;;;;;;19.06;92.42;100684.48;107378;1247;71065;-64
2022/08/13 03:24:17;;;;;;;17.30;13.60;;;;;;;19.02;92.83;100687.69;107352;1247;75136;-66
2022/08/13 03:26:59;;;;;;;16.20;12.40;;;;;;;19.00;93.35;100690.04;107403;1249;59710;-65
2022/08/13 03:29:29;;;;;;;15.00;13.10;;;;;;;19.01;92.92;100695.80;107410;1249;60431;-64
2022/08/13 03:32:18;;;;;;;17.60;13.10;;;;;;;18.97;93.75;100697.65;107461;1247;63616;-65
2022/08/13 03:35:00;;;;;;;15.60;12.10;;;;;;;18.99;93.49;100693.15;107376;1249;61457;-64
2022/08/13 03:37:41;;;;;;;18.30;12.80;;;;;;;19.03;93.22;100690.91;107481;1247;59229;-65
2022/08/13 03:40:12;;;;;;;13.80;11.60;;;;;;;19.07;93.31;100694.21;107408;1248;63265;-68
2022/08/13 03:42:48;;;;;;;15.60;12.40;;;;;;;19.16;92.75;100692.17;107524;1247;61991;-64
2022/08/13 03:45:24;;;;;;;14.00;11.40;;;;;;;19.18;92.62;100690.26;107427;1248;59088;-65
2022/08/13 03:47:55;;;;;;;14.00;11.40;;;;;;;19.22;92.24;100688.17;107414;1247;65969;-66
2022/08/13 03:50:25;;;;;;;15.50;12.40;;;;;;;19.25;91.97;100687.88;107426;1250;72381;-64
2022/08/13 03:53:00;;;;;;;16.20;12.20;;;;;;;19.25;92.09;100687.70;107375;1250;70216;-65
2022/08/13 03:55:30;;;;;;;16.30;12.10;;;;;;;19.26;91.87;100688.66;107431;1247;73418;-64
2022/08/13 03:58:14;;;;;;;15.40;11.40;;;;;;;19.27;91.77;100690.67;107424;1248;62078;-64
2022/08/13 04:00:49;;;;;;;16.10;12.00;;;;;;;19.29;91.45;100685.85;107442;1247;61102;-64
2022/08/13 04:03:22;;;;;;;17.30;12.10;;;;;;;19.27;91.41;100686.73;107386;1249;64229;-62
2022/08/13 04:05:58;;;;;;;15.50;11.70;;;;;;;19.25;91.75;100687.11;107479;1247;72956;-64
2022/08/13 04:08:35;;;;;;;16.80;11.80;;;;;;;19.29;91.43;100682.08;107536;1248;69036;-64
2022/08/13 04:11:10;;;;;;;16.80;12.50;;;;;;;19.38;90.86;100680.95;107444;1247;73849;-63
2022/08/13 04:13:46;;;;;;;15.00;11.70;;;;;;;19.42;90.65;100679.33;107410;1247;59633;-63
2022/08/13 04:16:34;;;;;;;14.10;9.80;;;;;;;19.48;90.69;100682.52;107460;1247;61115;-64
2022/08/13 04:19:08;;;;;;;17.30;12.10;;;;;;;19.52;90.33;100680.63;107432;1248;64308;-65
2022/08/13 04:21:47;;;;;;;16.90;11.70;;;;;;;19.59;89.97;100676.89;107379;1247;60871;-66
2022/08/13 04:24:18;;;;;;;14.30;10.70;;;;;;;19.61;89.88;100675.84;107518;1246;70190;-66
2022/08/13 04:26:55;;;;;;;16.00;11.00;;;;;;;19.67;89.57;100678.48;107454;1248;62799;-66
2022/08/13 04:29:24;;;;;;;16.40;11.40;;;;;;;19.69;89.21;100677.60;107447;1246;62837;-64
2022/08/13 04:32:03;;;;;;;15.50;11.30;;;;;;;19.74;88.99;100680.20;107490;1247;61121;-66
2022/08/13 04:34:32;;;;;;;13.60;11.00;;;;;;;19.75;89.00;100686.45;107365;1249;74118;-65
2022/08/13 04:37:11;;;;;;;15.00;11.60;;;;;;;19.80;88.71;100691.00;107255;1250;72652;-64
2022/08/13 04:39:54;;;;;;;16.20;12.00;;;;;;;19.82;88.62;100695.64;107410;1248;61372;-65
2022/08/13 04:42:47;;;;;;;16.10;12.00;;;;;;;19.87;88.27;100697.31;107448;1247;62517;-65
2022/08/13 04:45:19;;;;;;;17.00;12.50;;;;;;;19.79;88.50;100697.58;107405;1249;62905;-68
2022/08/13 04:47:58;;;;;;;19.40;12.70;;;;;;;19.81;88.44;100694.78;107463;1247;58274;-65
2022/08/13 04:50:34;;;;;;;16.10;11.70;;;;;;;19.87;87.92;100694.29;107373;1247;62887;-65
2022/08/13 04:53:26;;;;;;;16.90;12.10;;;;;;;19.93;87.51;100694.11;107576;1247;71414;-66
2022/08/13 04:55:58;;;;;;;19.30;11.10;;;;;;;19.94;87.18;100696.00;107428;1247;60290;-65
2022/08/13 04:58:46;;;;;;;17.60;10.90;;;;;;;19.96;86.80;100695.71;107549;1247;73596;-65
2022/08/13 05:01:14;;;;;;;17.00;11.90;;;;;;;19.95;87.12;100693.08;107547;1247;62662;-69
2022/08/13 05:04:03;;;;;;;16.70;11.40;;;;;;;20.02;86.86;100692.21;107452;1247;60931;-64
2022/08/13 05:06:51;;;;;;;15.90;11.20;;;;;;;20.08;86.69;100689.40;107431;1250;73362;-66
2022/08/13 05:09:20;;;;;;;16.10;11.60;;;;;;;20.16;86.46;100685.02;107488;1247;71428;-67
2022/08/13 05:11:58;;;;;;;17.10;11.80;;;;;;;20.24;85.87;100684.63;107414;1248;69563;-65
2022/08/13 05:14:35;;;;;;;16.00;11.70;;;;;;;20.32;85.41;100682.80;107399;1250;74775;-66
2022/08/13 05:17:05;;;;;;;16.90;11.90;;;;;;;20.37;85.10;100686.10;107495;1247;59296;-65
2022/08/13 05:19:36;;;;;;;14.80;12.00;;;;;;;20.38;84.90;100688.27;107401;1248;59870;-65
2022/08/13 05:22:08;;;;;;;16.30;12.30;;;;;;;20.44;84.66;100693.95;107348;1247;75467;-65
2022/08/13 05:24:57;;;;;;;18.30;11.60;;;;;;;20.52;84.00;100693.13;107408;1250;72266;-64
2022/08/13 05:27:46;;;;;;;15.90;11.80;;;;;;;20.55;83.99;100691.39;107346;1247;60346;-65
2022/08/13 05:30:15;;;;;;;16.60;11.40;;;;;;;20.59;83.41;100689.96;107333;1249;62460;-64
2022/08/13 05:33:00;;;;;;;15.70;12.00;;;;;;;20.51;83.57;100686.66;107353;1247;59546;-65
2022/08/13 05:35:48;;;;;;;16.50;11.20;;;;;;;20.55;83.43;100686.17;107307;1247;60679;-65
2022/08/13 05:38:37;;;;;;;16.40;10.60;;;;;;;20.57;83.29;100685.48;107317;1250;64127;-65
2022/08/13 05:41:11;;;;;;;16.40;11.50;;;;;;;20.57;83.04;100687.02;107444;1250;62049;-66
2022/08/13 05:43:40;;;;;;;17.40;11.40;;;;;;;20.50;83.32;100690.85;107506;1249;70635;-64
2022/08/13 05:46:10;;;;;;;17.10;11.30;;;;;;;20.49;83.46;100687.11;107493;1247;63177;-64
2022/08/13 05:48:56;;;;;;;17.50;12.00;;;;;;;20.47;83.42;100685.02;107326;1247;59619;-66
2022/08/13 05:51:29;;;;;;;15.90;11.60;;;;;;;20.55;83.41;100683.73;107393;1250;58180;-66
2022/08/13 05:54:19;;;;;;;16.00;11.60;;;;;;;20.62;83.28;100689.68;107459;1247;74016;-71
2022/08/13 05:57:09;;;;;;;16.60;11.70;;;;;;;20.62;82.88;100691.63;107419;1248;71809;-66
2022/08/13 06:05:17;;;;;;;18.00;13.00;;;;;;;20.77;82.57;100692.89;107449;1247;62765;-67
2022/08/13 06:08:06;;;;;;;17.00;12.50;;;;;;;20.74;82.63;100689.30;107467;1247;59628;-67
2022/08/13 06:11:01;;;;;;;16.20;12.20;;;;;;;20.80;82.47;100690.02;107358;1250;64027;-68
2022/08/13 06:13:33;;;;;;;16.60;12.20;;;;;;;20.87;82.41;100689.16;107215;1250;62973;-66
2022/08/13 06:16:28;;;;;;;16.60;12.20;;;;;;;20.93;81.88;100682.30;107410;1248;59267;-71
2022/08/13 06:19:20;;;;;;;18.70;13.40;;;;;;;20.92;81.98;100678.04;107425;1247;74347;-66
2022/08/13 06:22:02;;;;;;;17.40;12.70;;;;;;;21.00;81.75;100676.57;107402;1248;59584;-67
2022/08/13 06:24:37;;;;;;;17.60;12.90;;;;;;;21.03;81.48;100676.42;107340;1248;57999;-69
2022/08/13 06:27:23;;;;;;;21.50;12.80;;;;;;;21.26;81.31;100682.02;107453;1247;74762;-67
2022/08/13 06:30:18;;;;;;;18.10;13.00;;;;;;;21.32;80.74;100681.80;107405;1248;61532;-68
2022/08/13 06:33:03;;;;;;;18.10;12.90;;;;;;;21.44;80.21;100685.37;107448;1247;70569;-66
2022/08/13 06:35:55;;;;;;;17.80;12.80;;;;;;;21.47;80.12;100688.54;107486;1247;73858;-66
2022/08/13 06:38:48;;;;;;;17.60;13.40;;;;;;;21.38;80.15;100690.52;107345;1250;63460;-69
2022/08/13 06:41:21;;;;;;;18.20;13.70;;;;;;;21.50;79.64;100690.01;107656;1247;59673;-67
2022/08/13 06:43:53;;;;;;;17.90;13.10;;;;;;;21.57;79.33;100686.45;107447;1247;74516;-67
2022/08/13 06:46:31;;;;;;;20.80;14.60;;;;;;;21.56;79.26;100688.60;107390;1248;62530;-67
2022/08/13 06:49:02;;;;;;;21.50;14.30;;;;;;;21.57;79.15;100686.86;107331;1248;70549;-67
2022/08/13 06:51:34;;;;;;;22.40;14.60;;;;;;;21.64;79.18;100687.59;107432;1247;74611;-66
2022/08/13 06:54:10;;;;;;;23.20;16.00;;;;;;;21.68;78.96;100682.96;107414;1250;59709;-65
2022/08/13 06:56:59;;;;;;;20.30;15.00;;;;;;;21.80;78.70;100685.33;107414;1247;59809;-67
2022/08/13 06:59:50;;;;;;;19.70;15.10;;;;;;;21.89;78.23;100686.20;107346;1250;75221;-68
2022/08/13 07:02:43;;;;;;;21.90;15.30;;;;;;;21.91;77.98;100680.74;107483;1247;73603;-69
2022/08/13 07:05:12;;;;;;;23.00;15.30;;;;;;;21.86;78.20;100682.23;107310;1250;71209;-66
2022/08/13 07:07:48;;;;;;;22.40;15.60;;;;;;;21.99;77.81;100681.11;107491;1247;74872;-67
2022/08/13 07:10:18;;;;;;;29.00;16.60;;;;;;;22.07;77.39;100680.33;107430;1247;59079;-66
2022/08/13 07:12:48;;;;;;;23.60;14.90;;;;;;;22.09;77.24;100681.63;107541;1247;59003;-68
2022/08/13 07:15:17;;;;;;;18.10;12.50;;;;;;;22.20;77.26;100677.61;107338;1250;75025;-67
2022/08/13 07:18:07;;;;;;;26.20;16.90;;;;;;;22.28;77.08;100680.22;107535;1247;62272;-66
2022/08/13 07:20:41;;;;;;;18.90;14.60;;;;;;;22.26;76.82;100686.99;107519;1248;60002;-67
2022/08/13 07:23:11;;;;;;;22.00;16.00;;;;;;;22.26;76.80;100685.08;107559;1247;64312;-66
2022/08/13 07:26:02;;;;;;;26.30;16.90;;;;;;;22.20;76.70;100678.66;107413;1250;62838;-67
2022/08/13 07:28:39;;;;;;;20.20;15.80;;;;;;;22.21;76.77;100677.81;107414;1247;59023;-67
2022/08/13 07:31:30;;;;;;;23.40;16.10;;;;;;;22.21;77.00;100678.80;107421;1248;75377;-66
2022/08/13 07:34:19;;;;;;;24.60;17.30;;;;;;;22.31;76.84;100677.02;107406;1250;62107;-67
2022/08/13 07:36:59;;;;;;;22.50;17.80;;;;;;;22.41;76.26;100674.19;107278;1248;69605;-66
2022/08/13 07:39:31;;;;;;;23.90;18.40;;;;;;;22.41;76.19;100673.61;107297;1248;73603;-69
2022/08/13 07:42:21;;;;;;;22.70;17.50;;;;;;;22.43;76.26;100674.20;107485;1247;62546;-66
2022/08/13 07:44:59;;;;;;;19.90;16.00;;;;;;;22.50;76.22;100675.30;107392;1250;60153;-67
2022/08/13 07:47:50;;;;;;;22.70;16.00;;;;;;;22.52;76.04;100673.11;107511;1247;63082;-66
2022/08/13 07:50:40;;;;;;;23.30;16.80;;;;;;;22.44;76.36;100671.08;107373;1250;61481;-66
2022/08/13 07:53:10;;;;;;;22.60;16.70;;;;;;;22.61;75.74;100666.70;107492;1250;69801;-66
2022/08/13 07:55:43;;;;;;;23.40;17.40;;;;;;;22.64;75.33;100662.48;107446;1250;73449;-68
2022/08/13 07:58:35;;;;;;;23.00;17.30;;;;;;;22.59;75.71;100660.43;107614;1247;63488;-67
2022/08/13 08:01:06;;;;;;;25.40;17.70;;;;;;;22.71;75.35;100657.77;107355;1250;60051;-68
2022/08/13 08:03:42;;;;;;;20.10;14.70;;;;;;;22.76;75.50;100657.57;107433;1250;73556;-67
2022/08/13 08:06:22;;;;;;;23.10;16.90;;;;;;;22.90;74.98;100653.68;107336;1250;62218;-67
2022/08/13 08:08:58;;;;;;;25.60;18.40;;;;;;;23.03;74.62;100650.43;107451;1248;70554;-69
2022/08/13 08:14:27;;;;;;;25.20;17.20;;;;;;;23.17;73.70;100654.05;107517;1250;59625;-66
2022/08/13 08:17:01;;;;;;;24.10;17.40;;;;;;;23.25;73.82;100655.51;107507;1247;61583;-67
2022/08/13 08:19:50;;;;;;;25.50;17.30;;;;;;;23.24;73.38;100654.10;107406;1250;74449;-67
2022/08/13 08:22:44;;;;;;;28.70;18.00;;;;;;;23.38;73.22;100652.10;107585;1247;72516;-69
2022/08/13 08:25:21;;;;;;;23.90;17.40;;;;;;;23.50;72.88;100647.75;107504;1249;60568;-68
2022/08/13 08:27:50;;;;;;;21.90;17.70;;;;;;;23.69;72.44;100640.68;107501;1249;63123;-71
2022/08/13 08:30:39;;;;;;;24.10;16.90;;;;;;;23.98;72.01;100634.04;107422;1250;59631;-69
2022/08/13 08:33:28;;;;;;;23.90;16.80;;;;;;;24.21;70.77;100629.26;107472;1250;61286;-68
2022/08/13 08:36:17;;;;;;;26.00;17.20;;;;;;;24.28;69.94;100627.63;107413;1247;64261;-69
2022/08/13 08:44:43;;;;;;;;;;;;;;;24.15;70.28;100626.17;107449;1247;74787;-69
2022/08/13 08:47:12;;;;;;;24.00;16.30;;;;;;;24.10;69.91;100628.69;107203;1250;59660;-69
2022/08/13 08:49:43;;;;;;;23.40;17.20;;;;;;;24.21;69.48;100619.60;107276;1250;60911;-69
2022/08/13 08:52:13;;;;;;;20.40;14.90;;;;;;;24.24;69.07;100621.54;107599;1247;74792;-69
2022/08/13 08:54:47;;;;;;;23.10;17.50;;;;;;;24.25;69.36;100623.21;107520;1250;74066;-70
2022/08/13 08:57:18;;;;;;;;;;;;;;;24.31;68.95;100618.85;107288;1250;59954;-68
2022/08/13 08:59:50;;;;;;;26.70;16.90;;;;;;;24.58;68.11;100617.26;107283;1248;72561;-68
2022/08/13 09:02:24;;;;;;;24.10;17.10;;;;;;;24.60;67.99;100616.23;107383;1248;62877;-67
2022/08/13 09:04:56;;;;;;;21.80;17.10;;;;;;;24.72;67.52;100618.95;107454;1247;61575;-68
2022/08/13 09:07:47;;;;;;;23.30;17.30;;;;;;;24.77;67.32;100616.68;107369;1250;63527;-70
2022/08/13 09:10:19;;;;;;;23.00;16.30;;;;;;;24.80;67.04;100615.25;107575;1248;72822;-68
2022/08/13 09:13:02;;;;;;;24.20;17.90;;;;;;;24.85;66.90;100613.80;107603;1248;59670;-69
2022/08/13 09:15:34;;;;;;;21.70;16.80;;;;;;;24.77;67.08;100609.70;107411;1250;62299;-68
2022/08/13 09:18:07;;;;;;;22.10;16.80;;;;;;;24.71;67.33;100608.34;107245;1250;62269;-68
2022/08/13 09:20:45;;;;;;;20.30;16.70;;;;;;;24.69;67.62;100612.00;107379;1247;61253;-68
2022/08/13 09:23:22;;;;;;;24.80;17.70;;;;;;;24.58;67.51;100609.38;107486;1250;63476;-69
2022/08/13 09:26:13;;;;;;;24.10;17.70;;;;;;;24.54;67.89;100611.79;107300;1250;61719;-66
2022/08/13 09:28:56;;;;;;;22.40;17.80;;;;;;;24.59;67.56;100611.52;107425;1248;70355;-67
2022/08/13 09:31:25;;;;;;;22.60;18.80;;;;;;;24.57;67.87;100613.40;107435;1250;62778;-67
2022/08/13 09:34:16;;;;;;;26.00;18.50;;;;;;;24.51;68.15;100614.91;107501;1247;59620;-67
2022/08/13 09:36:45;;;;;;;20.70;16.40;;;;;;;24.14;69.33;100617.33;107297;1250;61730;-66
2022/08/13 09:39:39;;;;;;;25.40;18.80;;;;;;;24.31;68.64;100614.59;107510;1249;75019;-69
2022/08/13 09:42:17;;;;;;;22.80;17.40;;;;;;;24.32;68.58;100607.73;107462;1250;71933;-68
2022/08/13 09:44:59;;;;;;;20.50;16.90;;;;;;;24.36;68.63;100601.34;107519;1248;71044;-67
2022/08/13 09:47:28;;;;;;;22.90;18.40;;;;;;;24.39;68.62;100595.67;107468;1250;63829;-69
2022/08/13 09:50:17;;;;;;;23.50;17.70;;;;;;;24.54;68.34;100595.20;107492;1250;62744;-67
2022/08/13 09:52:48;;;;;;;25.60;17.00;;;;;;;24.80;67.70;100591.41;107418;1250;59609;-68
2022/08/13 09:55:17;;;;;;;22.90;17.10;;;;;;;25.03;66.49;100596.90;107435;1247;74525;-67
2022/08/13 09:58:09;;;;;;;23.80;17.30;;;;;;;25.22;66.02;100588.73;107536;1247;61425;-68
2022/08/13 10:00:46;;;;;;;23.40;17.90;;;;;;;25.55;65.14;100583.41;107567;1248;69741;-69
2022/08/13 10:03:19;;;;;;;24.90;18.00;;;;;;;25.83;64.08;100582.56;107305;1250;74290;-68
2022/08/13 10:05:48;;;;;;;22.80;17.10;;;;;;;26.00;62.46;100579.23;107434;1247;59574;-67
2022/08/13 10:08:21;;;;;;;19.20;17.00;;;;;;;26.16;62.10;100577.84;107451;1248;60362;-68
2022/08/13 10:10:59;;;;;;;22.30;17.50;;;;;;;26.38;61.74;100584.83;107502;1248;63488;-70
2022/08/13 10:13:33;;;;;;;29.70;18.20;;;;;;;26.54;61.02;100577.62;107178;1250;60901;-74
2022/08/13 10:16:18;;;;;;;22.80;18.20;;;;;;;26.71;60.64;100574.77;107473;1250;70323;-65
2022/08/13 10:18:48;;;;;;;23.20;16.80;;;;;;;26.92;59.64;100574.56;107441;1250;62854;-67
2022/08/13 10:21:17;;;;;;;21.80;16.90;;;;;;;27.13;58.48;100569.34;107450;1247;59618;-67
2022/08/13 10:23:48;;;;;;;21.80;17.30;;;;;;;27.19;57.85;100573.52;107593;1251;59643;-70
2022/08/13 10:26:18;;;;;;;21.10;16.90;;;;;;;27.42;57.14;100565.34;107679;1247;74810;-72
2022/08/13 10:28:48;;;;;;;18.80;15.20;;;;;;;27.67;56.37;100565.23;107549;1248;71791;-67
2022/08/13 10:31:18;;;;;;;18.20;16.10;;;;;;;27.80;55.70;100563.84;107548;1248;71164;-69
2022/08/13 10:34:07;;;;;;;21.60;16.10;;;;;;;27.82;55.17;100559.48;107211;1250;74716;-69
2022/08/13 10:36:37;;;;;;;26.30;17.60;;;;;;;27.76;55.52;100561.02;107194;1250;60743;-69
2022/08/13 10:39:07;;;;;;;19.80;16.30;;;;;;;27.97;55.42;100562.02;107243;1250;59544;-68
2022/08/13 10:41:44;;;;;;;23.30;16.00;;;;;;;28.37;54.17;100563.39;107398;1248;62985;-69
2022/08/13 10:44:31;;;;;;;22.20;16.80;;;;;;;28.50;53.18;100561.77;107220;1250;71215;-67
2022/08/13 10:47:00;;;;;;;19.90;16.80;;;;;;;28.39;53.81;100562.04;107416;1248;71123;-68
2022/08/13 10:49:29;;;;;;;20.50;16.80;;;;;;;28.13;53.81;100564.21;107349;1248;63071;-69
2022/08/13 10:52:01;;;;;;;21.20;16.10;;;;;;;27.98;53.60;100560.94;107373;1250;60316;-70
2022/08/13 10:54:33;;;;;;;21.80;16.60;;;;;;;27.84;54.31;100560.82;107305;1250;59451;-68
2022/08/13 10:57:05;;;;;;;18.50;15.90;;;;;;;27.82;54.09;100559.06;107261;1250;74800;-68
2022/08/13 10:59:45;;;;;;;22.90;17.70;;;;;;;27.61;54.94;100558.25;107456;1248;62373;-70
2022/08/13 11:02:14;;;;;;;20.60;16.20;;;;;;;27.75;54.68;100559.36;107326;1250;70500;-66
2022/08/13 11:04:48;;;;;;;20.80;16.90;;;;;;;27.64;54.56;100550.73;107351;1250;65118;-67
2022/08/13 11:07:21;;;;;;;26.80;16.90;;;;;;;27.75;54.64;100547.59;107250;1251;60361;-69
2022/08/13 11:09:50;;;;;;;20.50;15.00;;;;;;;28.24;53.64;100545.01;107397;1247;60944;-69
2022/08/13 11:12:19;;;;;;;19.80;16.80;;;;;;;28.74;52.66;100548.19;107448;1250;63865;-70
2022/08/13 11:14:52;;;;;;;18.80;16.70;;;;;;;28.71;51.81;100547.58;107385;1248;71569;-67
2022/08/13 11:17:22;;;;;;;21.10;16.40;;;;;;;29.17;51.18;100548.70;107156;1248;70930;-68
2022/08/13 11:20:17;;;;;;;21.70;16.90;;;;;;;29.62;50.85;100546.47;107279;1248;63834;-69
2022/08/13 11:22:55;;;;;;;18.00;16.00;;;;;;;29.85;49.58;100548.77;107188;1251;60009;-69
2022/08/13 11:25:24;;;;;;;18.00;15.20;;;;;;;30.04;48.47;100545.73;107316;1248;61090;-70
2022/08/13 11:28:14;;;;;;;21.10;16.20;;;;;;;29.99;48.75;100540.85;105912;1250;1877287;-69
2022/08/13 11:30:52;;;;;;;19.60;16.50;;;;;;;29.85;48.99;100536.06;107382;1250;61922;-69
2022/08/13 11:33:26;;;;;;;18.40;15.80;;;;;;;29.73;48.92;100534.25;107342;1250;59048;-68
2022/08/13 11:36:15;;;;;;;16.80;15.10;;;;;;;29.77;48.89;100534.91;107295;1248;74264;-71
2022/08/13 11:38:44;;;;;;;20.30;16.30;;;;;;;29.66;48.42;100530.98;107323;1247;59453;-68
2022/08/13 11:41:14;;;;;;;18.20;15.90;;;;;;;30.04;47.49;100524.77;107431;1248;61225;-69
2022/08/13 11:43:49;;;;;;;18.50;15.00;;;;;;;30.58;46.17;100519.55;107607;1248;74478;-68
2022/08/13 11:46:26;;;;;;;20.30;15.10;;;;;;;30.69;45.23;100516.31;107451;1250;73013;-70
2022/08/13 11:48:55;;;;;;;18.10;14.70;;;;;;;30.72;43.83;100511.04;107474;1251;68584;-68
2022/08/13 11:51:45;;;;;;;15.70;13.80;;;;;;;31.07;43.45;100509.23;107415;1248;72219;-69
2022/08/13 11:54:21;;;;;;;15.70;13.20;;;;;;;31.52;43.26;100503.67;107413;1248;62016;-68
2022/08/13 11:57:05;;;;;;;19.50;14.70;;;;;;;31.70;43.13;100505.27;107365;1247;58943;-69
2022/08/13 11:59:42;;;;;;;;;;;;;;;32.01;41.88;100501.49;107463;1248;64180;-69
2022/08/13 12:02:17;;;;;;;17.80;14.10;;;;;;;32.32;40.82;100503.21;107527;1248;72631;-69
2022/08/13 12:05:00;;;;;;;19.00;14.50;;;;;;;32.29;41.26;100501.55;107390;1249;59285;-69
2022/08/13 12:07:40;;;;;;;17.00;14.20;;;;;;;32.14;41.20;100493.66;107435;1248;64238;-70
2022/08/13 12:10:18;;;;;;;16.50;14.10;;;;;;;32.71;39.36;100496.04;107505;1250;59604;-70
2022/08/13 12:13:08;;;;;;;18.70;14.60;;;;;;;32.00;40.87;100491.36;107520;1248;59548;-69